Time;durP1;ratioP1;P1;durP2;ratioP2;P2;SDS_P1;SDS_P2;PMS_P1;PMS_P2;Temp;Humidity;BMP_temperature;BMP_pressure;BME280_temperature;BME280_humidity;BME280_pressure;Samples;Min_cycle;Max_cycle;Signal;HPM_P1;HPM_P2
2023/08/19 00:01:24;;;;;;;3.65;2.25;;;;;;;;;;5064469;28;20231;-31
2023/08/19 00:04:10;;;;;;;3.58;2.10;;;;;;;;;;5067856;28;20207;-32
2023/08/19 00:06:49;;;;;;;2.40;2.05;;;;;;;;;;5072933;28;20517;-30
2023/08/19 00:09:34;;;;;;;2.42;2.20;;;;;;;;;;5057118;28;20228;-30
2023/08/19 00:12:15;;;;;;;2.70;2.50;;;;;;;;;;5061561;28;20242;-33
2023/08/19 00:14:55;;;;;;;2.40;2.20;;;;;;;;;;5047245;28;20291;-31
2023/08/19 00:17:37;;;;;;;3.22;1.95;;;;;;;;;;5055695;28;20268;-32
2023/08/19 00:20:15;;;;;;;5.97;2.58;;;;;;;;;;5073009;28;20310;-31
2023/08/19 00:22:58;;;;;;;2.70;2.15;;;;;;;;;;5057191;28;20298;-31
2023/08/19 00:28:31;;;;;;;4.57;2.42;;;;;;;;;;5051470;28;20200;-29
2023/08/19 00:31:09;;;;;;;3.65;2.42;;;;;;;;;;5043555;28;20239;-32
2023/08/19 00:33:43;;;;;;;2.72;2.20;;;;;;;;;;5056763;28;20220;-29
2023/08/19 00:36:21;;;;;;;7.13;2.15;;;;;;;;;;5073201;28;20261;-31
2023/08/19 00:39:01;;;;;;;3.90;2.50;;;;;;;;;;5059734;28;20227;-29
2023/08/19 00:41:43;;;;;;;3.65;2.10;;;;;;;;;;5039141;28;20259;-30
2023/08/19 00:44:27;;;;;;;4.47;2.30;;;;;;;;;;5049157;28;20215;-30
2023/08/19 00:53:31;;;;;;;3.40;2.15;;;;;;;;;;5336322;22;20310;-32
2023/08/19 01:02:12;;;;;;;3.53;2.38;;;;;;;;;;4999294;28;20242;-32
2023/08/19 01:07:52;;;;;;;4.70;2.47;;;;;;;;;;5031690;28;20213;-31
2023/08/19 01:10:45;;;;;;;3.20;2.15;;;;;;;;;;5039241;28;20319;-29
2023/08/19 01:13:21;;;;;;;2.60;2.10;;;;;;;;;;5047460;28;20212;-31
2023/08/19 01:19:05;;;;;;;7.18;2.30;;;;;;;;;;5052192;28;20608;-33
2023/08/19 01:21:51;;;;;;;3.42;2.50;;;;;;;;;;5048855;28;20238;-33
2023/08/19 01:24:31;;;;;;;2.92;2.60;;;;;;;;;;5041265;28;20218;-30
2023/08/19 01:27:16;;;;;;;3.92;2.45;;;;;;;;;;5032105;28;20217;-31
2023/08/19 01:30:23;;;;;;;3.50;2.50;;;;;;;;;;5037568;28;20201;-32
2023/08/19 01:33:08;;;;;;;4.15;2.20;;;;;;;;;;5052543;28;20215;-32
2023/08/19 01:35:38;;;;;;;2.67;2.22;;;;;;;;;;5143883;22;20221;-28
2023/08/19 01:38:09;;;;;;;2.15;2.05;;;;;;;;;;5052371;28;20208;-31
2023/08/19 01:40:37;;;;;;;2.70;2.30;;;;;;;;;;5061617;28;20223;-29
2023/08/19 01:43:08;;;;;;;3.45;2.20;;;;;;;;;;5063479;28;20218;-32
2023/08/19 01:45:35;;;;;;;2.20;2.00;;;;;;;;;;5052726;28;20203;-33
2023/08/19 01:48:03;;;;;;;4.65;2.20;;;;;;;;;;5068455;28;20207;-29
2023/08/19 01:50:30;;;;;;;2.38;2.17;;;;;;;;;;5058597;28;20215;-29
2023/08/19 01:52:57;;;;;;;2.40;2.20;;;;;;;;;;5050354;28;20223;-33
2023/08/19 01:55:24;;;;;;;3.10;2.00;;;;;;;;;;5063367;28;20228;-30
2023/08/19 01:57:51;;;;;;;3.53;2.30;;;;;;;;;;5065630;28;20208;-32
2023/08/19 02:00:20;;;;;;;4.18;2.83;;;;;;;;;;5051001;28;20238;-29
2023/08/19 02:02:47;;;;;;;2.55;2.35;;;;;;;;;;5053177;28;20572;-27
2023/08/19 02:05:14;;;;;;;4.00;3.67;;;;;;;;;;5053676;28;20218;-33
2023/08/19 02:07:42;;;;;;;3.65;2.55;;;;;;;;;;5051331;28;20207;-30
2023/08/19 02:10:10;;;;;;;2.47;2.28;;;;;;;;;;5057247;28;20235;-30
2023/08/19 02:12:37;;;;;;;2.40;2.30;;;;;;;;;;5063450;28;20421;-28
2023/08/19 02:15:05;;;;;;;3.20;2.40;;;;;;;;;;5052122;28;20221;-31
2023/08/19 02:17:34;;;;;;;2.92;2.72;;;;;;;;;;5064010;28;20200;-32
2023/08/19 02:20:01;;;;;;;3.92;2.50;;;;;;;;;;5072918;28;20237;-29
2023/08/19 02:22:28;;;;;;;2.75;2.35;;;;;;;;;;5058289;28;20302;-32
2023/08/19 02:24:55;;;;;;;3.30;2.53;;;;;;;;;;5060897;28;20214;-30
2023/08/19 02:27:22;;;;;;;2.42;2.22;;;;;;;;;;5052379;28;20216;-29
2023/08/19 02:29:50;;;;;;;2.60;2.40;;;;;;;;;;5053070;28;20201;-28
2023/08/19 02:32:17;;;;;;;3.40;2.58;;;;;;;;;;5060508;28;20548;-32
2023/08/19 02:34:45;;;;;;;2.40;2.08;;;;;;;;;;5052664;28;20207;-29
2023/08/19 02:37:14;;;;;;;5.38;2.53;;;;;;;;;;5049857;28;20219;-33
2023/08/19 02:39:41;;;;;;;2.88;2.60;;;;;;;;;;5056438;28;20319;-31
2023/08/19 02:42:11;;;;;;;3.40;2.30;;;;;;;;;;5056135;28;20313;-32
2023/08/19 02:44:38;;;;;;;3.50;2.20;;;;;;;;;;5053901;28;20212;-33
2023/08/19 02:47:05;;;;;;;3.05;2.47;;;;;;;;;;5068987;28;20205;-29
2023/08/19 02:49:32;;;;;;;2.78;2.55;;;;;;;;;;5052669;28;20205;-29
2023/08/19 02:52:01;;;;;;;3.38;2.70;;;;;;;;;;5050907;28;20564;-33
2023/08/19 02:54:28;;;;;;;3.35;2.50;;;;;;;;;;5057384;28;20209;-30
2023/08/19 02:56:55;;;;;;;3.75;2.70;;;;;;;;;;5053327;28;20218;-32
2023/08/19 02:59:22;;;;;;;2.58;2.30;;;;;;;;;;5050081;28;20207;-30
2023/08/19 03:01:49;;;;;;;3.55;2.65;;;;;;;;;;5060254;28;20214;-33
2023/08/19 03:04:16;;;;;;;3.22;2.58;;;;;;;;;;5054112;28;20656;-32
2023/08/19 03:06:43;;;;;;;2.80;2.60;;;;;;;;;;5051505;28;20205;-32
2023/08/19 03:09:12;;;;;;;2.92;2.40;;;;;;;;;;5050353;28;20212;-29
2023/08/19 03:11:41;;;;;;;2.47;2.30;;;;;;;;;;5051502;28;20228;-29
2023/08/19 03:14:08;;;;;;;3.80;2.70;;;;;;;;;;5049295;28;20292;-30
2023/08/19 03:16:35;;;;;;;2.67;2.47;;;;;;;;;;5055928;28;20233;-27
2023/08/19 03:19:03;;;;;;;4.45;2.75;;;;;;;;;;5067133;28;20201;-32
2023/08/19 03:21:30;;;;;;;6.50;2.72;;;;;;;;;;5071426;28;20280;-29
2023/08/19 03:23:57;;;;;;;3.63;2.20;;;;;;;;;;5058196;28;20228;-28
2023/08/19 03:26:25;;;;;;;4.43;2.33;;;;;;;;;;5051042;28;20210;-31
2023/08/19 03:28:52;;;;;;;3.13;2.67;;;;;;;;;;5051128;28;20220;-30
2023/08/19 03:31:19;;;;;;;2.58;2.35;;;;;;;;;;5066179;28;20218;-31
2023/08/19 03:33:47;;;;;;;2.95;2.65;;;;;;;;;;5071676;28;20205;-32
2023/08/19 03:36:14;;;;;;;3.90;2.25;;;;;;;;;;5064133;28;20220;-30
2023/08/19 03:38:41;;;;;;;3.38;2.65;;;;;;;;;;5061113;28;20201;-30
2023/08/19 03:41:08;;;;;;;3.70;2.60;;;;;;;;;;5064124;28;20379;-30
2023/08/19 03:43:36;;;;;;;2.20;2.10;;;;;;;;;;5062156;28;20208;-28
2023/08/19 03:46:04;;;;;;;3.42;2.33;;;;;;;;;;5065122;28;20209;-31
2023/08/19 03:48:31;;;;;;;2.17;2.08;;;;;;;;;;5072566;28;20201;-31
2023/08/19 03:50:58;;;;;;;4.40;2.40;;;;;;;;;;5071989;28;20226;-27
2023/08/19 03:53:25;;;;;;;2.40;2.20;;;;;;;;;;5061469;28;20217;-32
2023/08/19 03:55:52;;;;;;;4.63;2.80;;;;;;;;;;5060886;28;20216;-32
2023/08/19 03:58:19;;;;;;;2.97;2.75;;;;;;;;;;5052734;28;20220;-29
2023/08/19 04:00:47;;;;;;;2.95;2.58;;;;;;;;;;5060673;28;20233;-30
2023/08/19 04:03:14;;;;;;;4.38;2.80;;;;;;;;;;5063023;28;20205;-32
2023/08/19 04:05:42;;;;;;;2.75;2.30;;;;;;;;;;5071535;28;20200;-33
2023/08/19 04:08:09;;;;;;;2.92;2.35;;;;;;;;;;5057157;28;20221;-29
2023/08/19 04:10:36;;;;;;;3.55;2.38;;;;;;;;;;5062639;28;20426;-32
2023/08/19 04:13:03;;;;;;;3.30;2.67;;;;;;;;;;5049125;28;20199;-30
2023/08/19 04:15:31;;;;;;;3.00;2.60;;;;;;;;;;5055426;28;20204;-30
2023/08/19 04:18:00;;;;;;;3.40;3.00;;;;;;;;;;5065852;28;20205;-31
2023/08/19 04:20:27;;;;;;;3.20;2.17;;;;;;;;;;5071332;28;20241;-33
2023/08/19 04:22:54;;;;;;;3.45;2.70;;;;;;;;;;5051785;28;20205;-29
2023/08/19 04:25:21;;;;;;;3.40;2.63;;;;;;;;;;5058694;28;20209;-31
2023/08/19 04:27:48;;;;;;;5.75;2.70;;;;;;;;;;5048273;28;20710;-30
2023/08/19 04:30:15;;;;;;;4.80;2.25;;;;;;;;;;5055753;28;20230;-29
2023/08/19 04:32:42;;;;;;;1.85;1.70;;;;;;;;;;5067147;28;20198;-30
2023/08/19 04:35:13;;;;;;;3.92;2.58;;;;;;;;;;5053328;28;20209;-31
2023/08/19 04:37:40;;;;;;;2.20;2.10;;;;;;;;;;5050707;28;20213;-31
2023/08/19 04:40:09;;;;;;;3.92;2.40;;;;;;;;;;5068760;28;20306;-32
2023/08/19 04:42:36;;;;;;;3.97;2.40;;;;;;;;;;5032982;28;20684;-33
2023/08/19 04:45:05;;;;;;;3.63;2.63;;;;;;;;;;5056814;28;20212;-30
2023/08/19 04:47:33;;;;;;;3.53;2.40;;;;;;;;;;5063809;28;20231;-32
2023/08/19 04:50:00;;;;;;;3.40;2.33;;;;;;;;;;5072195;28;20713;-31
2023/08/19 04:52:28;;;;;;;2.20;2.10;;;;;;;;;;5053426;28;20205;-30
2023/08/19 04:54:55;;;;;;;5.75;2.50;;;;;;;;;;5067346;28;20208;-31
2023/08/19 04:57:23;;;;;;;2.75;2.55;;;;;;;;;;5072229;28;20201;-30
2023/08/19 04:59:50;;;;;;;2.30;2.20;;;;;;;;;;5050440;28;20201;-30
2023/08/19 05:02:17;;;;;;;3.20;2.28;;;;;;;;;;5052746;28;20217;-28
2023/08/19 05:04:44;;;;;;;4.07;2.30;;;;;;;;;;5051496;28;20212;-31
2023/08/19 05:07:11;;;;;;;3.88;2.58;;;;;;;;;;5048154;28;20210;-31
2023/08/19 05:09:39;;;;;;;2.53;2.33;;;;;;;;;;5061747;28;20232;-31
2023/08/19 05:12:07;;;;;;;3.65;2.55;;;;;;;;;;5055618;28;20266;-29
2023/08/19 05:14:34;;;;;;;4.80;2.33;;;;;;;;;;5050047;28;20206;-34
2023/08/19 05:17:01;;;;;;;3.65;2.30;;;;;;;;;;5058747;28;20213;-30
2023/08/19 05:19:28;;;;;;;2.95;2.65;;;;;;;;;;5052750;28;20218;-27
2023/08/19 05:21:55;;;;;;;3.00;2.08;;;;;;;;;;5055029;28;20221;-29
2023/08/19 05:24:23;;;;;;;2.20;2.10;;;;;;;;;;5064140;28;20201;-27
2023/08/19 05:26:51;;;;;;;5.40;2.50;;;;;;;;;;5055705;28;20202;-30
2023/08/19 05:29:18;;;;;;;5.00;2.25;;;;;;;;;;5053456;28;20563;-29
2023/08/19 05:31:45;;;;;;;4.13;2.55;;;;;;;;;;5064182;28;20218;-30
2023/08/19 05:34:12;;;;;;;3.05;2.70;;;;;;;;;;5076250;28;20307;-32
2023/08/19 05:36:39;;;;;;;3.33;2.70;;;;;;;;;;5067153;28;20214;-29
2023/08/19 05:39:07;;;;;;;3.10;2.70;;;;;;;;;;5069553;28;20211;-29
2023/08/19 05:41:34;;;;;;;3.47;2.90;;;;;;;;;;5063613;28;20226;-30
2023/08/19 05:44:03;;;;;;;2.70;2.50;;;;;;;;;;5053376;28;20683;-31
2023/08/19 05:46:30;;;;;;;5.47;2.28;;;;;;;;;;5068522;28;20214;-32
2023/08/19 05:48:57;;;;;;;5.13;2.92;;;;;;;;;;5055155;28;20203;-31
2023/08/19 05:51:24;;;;;;;6.80;3.22;;;;;;;;;;5055527;28;20229;-30
2023/08/19 05:53:52;;;;;;;3.08;2.85;;;;;;;;;;5053130;28;20239;-28
2023/08/19 05:56:19;;;;;;;3.35;3.10;;;;;;;;;;5054555;28;20303;-32
2023/08/19 05:58:46;;;;;;;4.47;3.22;;;;;;;;;;5052216;28;20207;-30
2023/08/19 06:01:14;;;;;;;4.13;3.50;;;;;;;;;;5055132;28;20231;-29
2023/08/19 06:03:42;;;;;;;3.67;3.38;;;;;;;;;;5060755;28;20571;-32
2023/08/19 06:06:09;;;;;;;4.63;3.17;;;;;;;;;;5052795;28;20210;-30
2023/08/19 06:08:36;;;;;;;2.67;2.47;;;;;;;;;;5056094;28;20226;-32
2023/08/19 06:11:05;;;;;;;3.55;2.80;;;;;;;;;;5070743;28;20217;-33
2023/08/19 06:13:32;;;;;;;5.97;3.35;;;;;;;;;;5065786;28;20258;-30
2023/08/19 06:15:59;;;;;;;4.68;3.10;;;;;;;;;;5059496;28;20726;-32
2023/08/19 06:18:28;;;;;;;3.22;2.92;;;;;;;;;;5062944;28;20677;-31
2023/08/19 06:20:56;;;;;;;3.78;2.92;;;;;;;;;;5055197;28;20225;-31
2023/08/19 06:23:23;;;;;;;5.13;3.03;;;;;;;;;;5052775;28;20214;-33
2023/08/19 06:25:51;;;;;;;2.95;2.42;;;;;;;;;;5069300;28;20209;-31
2023/08/19 06:28:19;;;;;;;5.32;2.60;;;;;;;;;;5053979;28;20784;-31
2023/08/19 06:30:47;;;;;;;4.80;3.10;;;;;;;;;;5054789;28;20282;-30
2023/08/19 06:33:14;;;;;;;3.38;2.90;;;;;;;;;;5055178;28;20205;-30
2023/08/19 06:35:47;;;;;;;3.47;3.10;;;;;;;;;;5054186;28;20217;-29
2023/08/19 06:38:16;;;;;;;3.22;2.80;;;;;;;;;;5053544;28;20264;-30
2023/08/19 06:40:50;;;;;;;2.90;2.70;;;;;;;;;;5054208;28;20222;-30
2023/08/19 06:43:18;;;;;;;3.03;2.80;;;;;;;;;;5052544;28;20208;-31
2023/08/19 06:45:45;;;;;;;3.45;3.15;;;;;;;;;;5053609;28;20652;-29
2023/08/19 06:48:14;;;;;;;7.95;4.35;;;;;;;;;;5062559;28;20688;-34
2023/08/19 06:50:43;;;;;;;3.83;2.85;;;;;;;;;;5070268;28;20489;-32
2023/08/19 06:53:10;;;;;;;4.25;2.90;;;;;;;;;;5056587;28;20213;-30
2023/08/19 06:55:40;;;;;;;3.53;3.20;;;;;;;;;;5061951;28;20209;-32
2023/08/19 06:58:09;;;;;;;3.40;3.05;;;;;;;;;;5050963;28;20205;-33
2023/08/19 07:00:37;;;;;;;4.32;3.20;;;;;;;;;;5057956;28;20219;-29
2023/08/19 07:03:05;;;;;;;7.40;3.35;;;;;;;;;;5066227;28;20210;-31
2023/08/19 07:05:32;;;;;;;4.30;3.30;;;;;;;;;;5054404;28;20203;-32
2023/08/19 07:08:03;;;;;;;5.53;3.20;;;;;;;;;;5051678;28;20201;-31
2023/08/19 07:10:31;;;;;;;5.50;3.40;;;;;;;;;;5053396;28;20227;-31
2023/08/19 07:12:58;;;;;;;4.30;3.33;;;;;;;;;;5056231;28;20704;-29
2023/08/19 07:15:26;;;;;;;6.85;3.58;;;;;;;;;;5057811;28;20215;-29
2023/08/19 07:17:55;;;;;;;9.43;3.63;;;;;;;;;;5068354;28;20299;-29
2023/08/19 07:20:23;;;;;;;5.93;3.65;;;;;;;;;;5073542;28;20233;-29
2023/08/19 07:22:51;;;;;;;3.58;3.28;;;;;;;;;;5056110;28;20232;-32
2023/08/19 07:25:20;;;;;;;4.35;3.13;;;;;;;;;;5053333;28;20240;-33
2023/08/19 07:27:48;;;;;;;4.13;2.72;;;;;;;;;;5050626;28;20205;-31
2023/08/19 07:30:15;;;;;;;6.63;3.00;;;;;;;;;;5053241;28;20238;-32
2023/08/19 07:32:43;;;;;;;3.35;2.97;;;;;;;;;;5060327;28;20198;-33
2023/08/19 07:35:10;;;;;;;5.90;3.10;;;;;;;;;;5053619;28;20627;-32
2023/08/19 07:37:37;;;;;;;5.20;3.08;;;;;;;;;;5057075;28;20213;-33
2023/08/19 07:40:06;;;;;;;3.25;2.85;;;;;;;;;;5061562;28;20201;-32
2023/08/19 07:42:34;;;;;;;5.90;3.20;;;;;;;;;;5072635;28;20245;-31
2023/08/19 07:45:01;;;;;;;4.35;2.60;;;;;;;;;;5056226;28;20296;-29
2023/08/19 07:47:28;;;;;;;4.20;2.97;;;;;;;;;;5060662;28;20575;-30
2023/08/19 07:49:55;;;;;;;6.20;3.05;;;;;;;;;;5053149;28;20208;-32
2023/08/19 07:52:22;;;;;;;4.78;3.17;;;;;;;;;;5050992;28;20201;-31
2023/08/19 08:00:48;;;;;;;5.32;2.92;;;;;;;;;;5058740;28;20230;-46
2023/08/19 08:21:10;;;;;;;4.30;2.55;;;;;;;;;;5052156;28;20292;-38
2023/08/19 08:24:01;;;;;;;5.57;2.47;;;;;;;;;;5037911;28;20202;-42
2023/08/19 08:26:42;;;;;;;3.17;2.60;;;;;;;;;;5035412;28;20225;-43
2023/08/19 08:29:51;;;;;;;3.28;2.70;;;;;;;;;;5039267;28;20216;-38
2023/08/19 08:36:00;;;;;;;3.72;2.50;;;;;;;;;;5032080;28;20210;-41
2023/08/19 08:38:56;;;;;;;3.28;2.97;;;;;;;;;;5044489;28;20478;-42
2023/08/19 08:47:53;;;;;;;6.03;2.67;;;;;;;;;;5038328;28;20332;-41
2023/08/19 09:17:39;;;;;;;8.20;2.92;;;;;;;;;;5020300;28;20277;-35
2023/08/19 09:20:54;;;;;;;6.13;2.40;;;;;;;;;;5032935;28;20276;-30
2023/08/19 09:23:39;;;;;;;3.00;2.70;;;;;;;;;;5014469;28;20231;-31
2023/08/19 09:26:20;;;;;;;4.35;2.50;;;;;;;;;;5012806;28;20203;-35
2023/08/19 09:28:52;;;;;;;4.43;3.00;;;;;;;;;;5010385;28;20207;-35
2023/08/19 09:31:38;;;;;;;3.13;2.58;;;;;;;;;;5027907;28;20246;-34
2023/08/19 09:34:10;;;;;;;5.95;2.50;;;;;;;;;;5033358;28;20302;-33
2023/08/19 09:37:09;;;;;;;3.20;2.83;;;;;;;;;;5023509;28;20210;-33
2023/08/19 09:42:52;;;;;;;5.05;2.50;;;;;;;;;;5013281;28;20233;-35
2023/08/19 09:45:42;;;;;;;3.08;2.53;;;;;;;;;;5411437;22;20211;-34
2023/08/19 09:48:52;;;;;;;5.45;2.92;;;;;;;;;;5044439;28;20211;-35
2023/08/19 09:51:31;;;;;;;5.85;2.70;;;;;;;;;;5020342;28;20592;-32
2023/08/19 10:45:09;;;;;;;8.57;3.33;;;;;;;;;;4948872;28;20220;-32
2023/08/19 11:06:27;;;;;;;6.45;2.22;;;;;;;;;;5353661;23;20578;-33
2023/08/19 11:09:26;;;;;;;5.60;2.90;;;;;;;;;;5014430;28;20253;-30
2023/08/19 11:15:16;;;;;;;4.93;2.72;;;;;;;;;;5036229;28;20297;-34
2023/08/19 11:26:42;;;;;;;8.25;2.33;;;;;;;;;;5013426;28;20219;-34
2023/08/19 11:32:34;;;;;;;5.65;2.50;;;;;;;;;;5065674;23;20328;-33
2023/08/19 11:53:33;;;;;;;5.40;2.30;;;;;;;;;;5012852;28;20226;-30
2023/08/19 11:56:17;;;;;;;2.60;1.98;;;;;;;;;;5014258;28;20207;-32
2023/08/19 11:58:48;;;;;;;6.13;2.20;;;;;;;;;;5013848;28;20213;-32
2023/08/19 12:01:31;;;;;;;4.38;2.30;;;;;;;;;;5013812;28;20592;-33
2023/08/19 12:04:15;;;;;;;2.55;1.92;;;;;;;;;;5015172;28;20294;-31
2023/08/19 12:06:56;;;;;;;3.38;2.20;;;;;;;;;;5014066;28;20203;-30
2023/08/19 12:12:40;;;;;;;4.18;2.17;;;;;;;;;;5014078;28;20195;-31
2023/08/19 12:15:34;;;;;;;6.10;2.33;;;;;;;;;;5013713;28;20222;-32
2023/08/19 12:18:45;;;;;;;3.63;2.20;;;;;;;;;;5014318;28;20202;-31
2023/08/19 12:21:31;;;;;;;3.88;2.60;;;;;;;;;;5015230;28;20731;-30
2023/08/19 12:24:12;;;;;;;7.80;2.70;;;;;;;;;;5012969;28;20246;-32
2023/08/19 12:26:54;;;;;;;4.78;2.60;;;;;;;;;;5014608;28;20207;-32
2023/08/19 12:29:48;;;;;;;;;;;;;;;;;;;;;
2023/08/19 12:38:33;;;;;;;4.10;2.40;;;;;;;;;;5013033;28;20207;-33
2023/08/19 12:41:12;;;;;;;4.85;2.80;;;;;;;;;;5005331;28;20230;-30
2023/08/19 12:44:04;;;;;;;2.38;2.17;;;;;;;;;;5022261;28;20288;-34
2023/08/19 12:47:16;;;;;;;6.90;2.35;;;;;;;;;;5021307;28;20211;-30
2023/08/19 12:50:11;;;;;;;8.65;2.60;;;;;;;;;;5013755;28;20211;-32
2023/08/19 12:52:56;;;;;;;4.15;2.55;;;;;;;;;;5025047;28;20203;-33
2023/08/19 12:59:04;;;;;;;3.75;2.40;;;;;;;;;;5017604;28;20202;-31
2023/08/19 13:04:43;;;;;;;6.05;2.58;;;;;;;;;;5031904;28;20727;-32
2023/08/19 13:07:26;;;;;;;4.25;1.98;;;;;;;;;;5033522;28;20206;-33
2023/08/19 13:10:14;;;;;;;2.50;2.30;;;;;;;;;;5020100;28;20226;-32
2023/08/19 13:13:00;;;;;;;3.42;2.10;;;;;;;;;;5033305;28;20260;-32
2023/08/19 13:15:58;;;;;;;3.67;2.20;;;;;;;;;;5024961;28;20200;-29
2023/08/19 13:18:54;;;;;;;2.17;2.00;;;;;;;;;;5025238;28;20202;-32
2023/08/19 13:21:50;;;;;;;3.83;1.80;;;;;;;;;;5058355;22;20265;-29
2023/08/19 13:24:41;;;;;;;4.65;2.50;;;;;;;;;;5029743;28;20226;-29
2023/08/19 13:27:30;;;;;;;2.25;1.70;;;;;;;;;;5033494;28;20302;-31
2023/08/19 13:30:02;;;;;;;2.60;2.40;;;;;;;;;;5030448;28;20297;-35
2023/08/19 13:32:42;;;;;;;5.50;2.25;;;;;;;;;;5010399;28;20218;-32
2023/08/19 13:35:12;;;;;;;2.83;2.00;;;;;;;;;;4994208;28;20210;-33
2023/08/19 13:38:04;;;;;;;3.78;2.22;;;;;;;;;;5015171;28;20231;-34
2023/08/19 13:40:39;;;;;;;2.10;1.90;;;;;;;;;;5005448;28;20219;-35
2023/08/19 13:43:40;;;;;;;4.43;2.40;;;;;;;;;;5017202;28;20265;-31
2023/08/19 13:46:40;;;;;;;3.80;2.20;;;;;;;;;;5015430;28;20211;-35
2023/08/19 13:49:30;;;;;;;3.60;2.30;;;;;;;;;;4999025;28;20295;-32
2023/08/19 13:52:35;;;;;;;5.90;2.75;;;;;;;;;;5209626;22;20314;-33
2023/08/19 13:55:47;;;;;;;2.72;2.10;;;;;;;;;;4958977;28;20224;-34
2023/08/19 13:58:15;;;;;;;9.70;2.50;;;;;;;;;;5018261;22;20261;-32
2023/08/19 14:00:42;;;;;;;3.55;2.25;;;;;;;;;;5021720;28;20233;-27
2023/08/19 14:03:09;;;;;;;3.75;2.40;;;;;;;;;;5004867;28;20231;-32
2023/08/19 14:05:37;;;;;;;3.53;1.98;;;;;;;;;;4994808;28;20233;-33
2023/08/19 14:08:04;;;;;;;4.53;2.25;;;;;;;;;;5010907;28;20218;-29
2023/08/19 14:10:32;;;;;;;4.47;2.80;;;;;;;;;;5002012;28;20394;-32
2023/08/19 14:12:59;;;;;;;2.95;2.60;;;;;;;;;;4994532;28;20217;-28
2023/08/19 14:15:27;;;;;;;3.97;2.30;;;;;;;;;;5012133;28;20298;-30
2023/08/19 14:17:54;;;;;;;3.38;2.45;;;;;;;;;;4998918;28;20211;-30
2023/08/19 14:20:22;;;;;;;3.10;2.75;;;;;;;;;;4993925;28;20733;-30
2023/08/19 14:22:49;;;;;;;3.22;2.40;;;;;;;;;;4996307;28;20453;-29
2023/08/19 14:25:16;;;;;;;6.15;2.67;;;;;;;;;;5009499;28;20203;-29
2023/08/19 14:27:45;;;;;;;3.13;2.50;;;;;;;;;;4994600;28;20266;-30
2023/08/19 14:30:12;;;;;;;3.17;2.88;;;;;;;;;;5010590;28;20227;-32
2023/08/19 14:32:39;;;;;;;5.93;2.80;;;;;;;;;;5004708;28;20195;-31
2023/08/19 14:35:07;;;;;;;3.25;2.63;;;;;;;;;;5013487;28;20215;-32
2023/08/19 14:37:34;;;;;;;4.45;2.67;;;;;;;;;;5008582;28;20214;-32
2023/08/19 14:40:01;;;;;;;5.95;3.00;;;;;;;;;;5005224;28;20203;-32
2023/08/19 14:42:28;;;;;;;4.90;3.22;;;;;;;;;;5004680;28;20219;-33
2023/08/19 14:44:56;;;;;;;4.35;3.90;;;;;;;;;;5004188;28;20211;-31
2023/08/19 14:47:23;;;;;;;3.90;3.60;;;;;;;;;;5002146;28;20204;-34
2023/08/19 14:49:51;;;;;;;5.32;3.35;;;;;;;;;;4993080;28;20225;-33
2023/08/19 14:52:18;;;;;;;4.38;3.50;;;;;;;;;;4993228;28;20385;-32
2023/08/19 14:54:46;;;;;;;5.15;3.72;;;;;;;;;;5007887;28;20199;-30
2023/08/19 14:57:13;;;;;;;3.55;3.20;;;;;;;;;;4995543;28;20211;-28
2023/08/19 14:59:40;;;;;;;4.68;3.60;;;;;;;;;;5008028;28;20215;-32
2023/08/19 15:02:09;;;;;;;3.95;3.38;;;;;;;;;;5004067;28;20238;-30
2023/08/19 15:04:36;;;;;;;9.93;3.95;;;;;;;;;;4993147;28;20322;-32
2023/08/19 15:07:04;;;;;;;9.23;5.43;;;;;;;;;;4992421;28;20210;-35
2023/08/19 15:09:31;;;;;;;9.93;3.88;;;;;;;;;;5001695;28;20266;-32
2023/08/19 15:11:58;;;;;;;4.03;3.63;;;;;;;;;;4996854;28;20230;-29
2023/08/19 15:14:25;;;;;;;6.75;4.38;;;;;;;;;;5004442;28;20214;-28
2023/08/19 15:16:54;;;;;;;4.10;3.60;;;;;;;;;;5005805;28;20214;-31
2023/08/19 15:19:22;;;;;;;4.93;3.80;;;;;;;;;;5010401;28;20207;-30
2023/08/19 15:21:49;;;;;;;3.63;3.35;;;;;;;;;;5010561;28;20231;-32
2023/08/19 15:24:16;;;;;;;7.68;3.83;;;;;;;;;;5002647;28;20219;-29
2023/08/19 15:26:43;;;;;;;6.85;3.85;;;;;;;;;;4999145;28;20230;-28
2023/08/19 15:29:11;;;;;;;4.43;3.90;;;;;;;;;;5000208;28;20221;-32
2023/08/19 15:31:38;;;;;;;5.70;4.10;;;;;;;;;;4999305;28;20230;-32
2023/08/19 15:34:06;;;;;;;4.00;3.60;;;;;;;;;;5008354;28;20205;-31
2023/08/19 15:36:34;;;;;;;6.72;3.70;;;;;;;;;;5011943;28;20588;-32
2023/08/19 15:39:01;;;;;;;6.28;3.47;;;;;;;;;;4999552;28;20212;-31
2023/08/19 15:41:29;;;;;;;6.50;4.15;;;;;;;;;;5003464;28;20254;-33
2023/08/19 15:43:56;;;;;;;8.55;4.00;;;;;;;;;;5009140;28;20257;-30
2023/08/19 15:46:23;;;;;;;6.47;4.57;;;;;;;;;;5002692;28;20576;-32
2023/08/19 15:48:50;;;;;;;7.43;3.78;;;;;;;;;;5011274;28;20563;-33
2023/08/19 15:51:17;;;;;;;5.13;3.38;;;;;;;;;;5011378;28;20219;-30
2023/08/19 15:53:46;;;;;;;6.18;3.33;;;;;;;;;;5009220;28;20203;-30
2023/08/19 15:56:13;;;;;;;3.88;3.22;;;;;;;;;;5009810;28;20265;-29
2023/08/19 15:58:40;;;;;;;5.60;3.83;;;;;;;;;;4995691;28;20229;-31
2023/08/19 16:01:07;;;;;;;3.60;3.30;;;;;;;;;;5005458;28;20227;-29
2023/08/19 16:03:35;;;;;;;4.50;3.15;;;;;;;;;;5002722;28;20249;-33
2023/08/19 16:06:03;;;;;;;5.75;3.92;;;;;;;;;;5010969;28;20211;-31
2023/08/19 16:08:31;;;;;;;5.43;3.50;;;;;;;;;;5008772;28;20306;-34
2023/08/19 16:11:03;;;;;;;3.95;3.55;;;;;;;;;;5002983;28;20361;-33
2023/08/19 16:13:30;;;;;;;6.60;3.42;;;;;;;;;;5008439;28;20209;-31
2023/08/19 16:15:59;;;;;;;7.15;3.85;;;;;;;;;;4997602;28;20210;-33
2023/08/19 16:18:26;;;;;;;5.82;3.47;;;;;;;;;;5001603;28;20206;-30
2023/08/19 16:20:53;;;;;;;5.88;3.72;;;;;;;;;;5011071;28;20227;-28
2023/08/19 16:23:20;;;;;;;9.23;3.55;;;;;;;;;;5008223;28;20227;-34
2023/08/19 16:25:47;;;;;;;4.18;3.70;;;;;;;;;;5002816;28;20203;-31
2023/08/19 16:28:16;;;;;;;5.65;4.00;;;;;;;;;;5005915;28;20200;-31
2023/08/19 16:30:43;;;;;;;7.43;3.80;;;;;;;;;;5010308;28;20261;-32
2023/08/19 16:33:10;;;;;;;6.05;4.03;;;;;;;;;;5001840;28;20517;-33
2023/08/19 16:35:37;;;;;;;4.40;3.20;;;;;;;;;;4991723;28;20306;-32
2023/08/19 16:38:04;;;;;;;7.28;3.53;;;;;;;;;;4993339;28;20211;-31
2023/08/19 16:40:32;;;;;;;7.18;3.28;;;;;;;;;;5002353;28;20223;-31
2023/08/19 16:42:59;;;;;;;4.20;3.72;;;;;;;;;;4995843;28;20203;-32
2023/08/19 16:45:27;;;;;;;4.03;3.60;;;;;;;;;;5006993;28;20238;-33
2023/08/19 16:47:54;;;;;;;3.95;3.53;;;;;;;;;;4998767;28;20215;-28
2023/08/19 16:50:21;;;;;;;4.18;3.60;;;;;;;;;;4991049;28;20227;-31
2023/08/19 16:52:48;;;;;;;5.28;3.63;;;;;;;;;;4992128;28;20217;-31
2023/08/19 16:55:16;;;;;;;4.45;2.97;;;;;;;;;;5005624;28;20207;-31
2023/08/19 16:57:43;;;;;;;6.10;3.70;;;;;;;;;;4996088;28;20210;-30
2023/08/19 17:00:10;;;;;;;6.38;4.00;;;;;;;;;;5007454;28;20235;-32
2023/08/19 17:02:39;;;;;;;7.07;3.30;;;;;;;;;;4998528;28;20206;-33
2023/08/19 17:05:07;;;;;;;6.35;3.70;;;;;;;;;;4991112;28;20693;-31
2023/08/19 17:07:34;;;;;;;3.65;3.10;;;;;;;;;;4991623;28;20203;-33
2023/08/19 17:10:01;;;;;;;4.18;3.47;;;;;;;;;;5005532;28;20217;-28
2023/08/19 17:12:30;;;;;;;5.80;3.47;;;;;;;;;;5007145;28;20216;-32
2023/08/19 17:14:57;;;;;;;4.05;3.35;;;;;;;;;;5007015;28;20217;-29
2023/08/19 17:17:24;;;;;;;4.00;3.60;;;;;;;;;;5005658;28;20202;-29
2023/08/19 17:19:53;;;;;;;7.40;3.92;;;;;;;;;;5014299;28;20215;-28
2023/08/19 17:22:23;;;;;;;7.22;3.80;;;;;;;;;;5010509;28;20207;-31
2023/08/19 17:24:50;;;;;;;5.70;3.60;;;;;;;;;;5001503;28;20225;-32
2023/08/19 17:27:18;;;;;;;3.88;3.50;;;;;;;;;;5014327;28;20203;-29
2023/08/19 17:29:45;;;;;;;4.43;3.33;;;;;;;;;;5010027;28;20202;-29
2023/08/19 17:32:12;;;;;;;3.67;3.35;;;;;;;;;;5006659;28;20211;-28
2023/08/19 17:34:39;;;;;;;9.48;3.20;;;;;;;;;;4996400;28;20565;-31
2023/08/19 17:37:08;;;;;;;4.38;3.97;;;;;;;;;;4994506;28;20214;-30
2023/08/19 17:39:35;;;;;;;5.05;4.20;;;;;;;;;;5010615;28;20203;-29
2023/08/19 17:42:02;;;;;;;7.03;3.70;;;;;;;;;;4998516;28;20318;-33
2023/08/19 17:44:32;;;;;;;7.50;3.78;;;;;;;;;;5008256;28;20224;-29
2023/08/19 17:46:59;;;;;;;4.88;3.60;;;;;;;;;;5013795;28;20214;-34
2023/08/19 17:49:26;;;;;;;5.38;3.40;;;;;;;;;;4997376;28;20200;-29
2023/08/19 17:51:53;;;;;;;5.45;3.33;;;;;;;;;;5006003;28;20229;-30
2023/08/19 17:54:22;;;;;;;9.20;3.75;;;;;;;;;;5004722;28;20199;-28
2023/08/19 17:56:49;;;;;;;4.60;3.58;;;;;;;;;;5016074;28;20210;-29
2023/08/19 17:59:16;;;;;;;6.20;3.67;;;;;;;;;;5008536;28;20211;-34
2023/08/19 18:01:45;;;;;;;3.83;3.50;;;;;;;;;;5013308;28;20223;-30
2023/08/19 18:04:12;;;;;;;3.65;3.35;;;;;;;;;;4997033;28;20227;-31
2023/08/19 18:06:39;;;;;;;5.40;4.18;;;;;;;;;;4993701;28;20211;-31
2023/08/19 18:09:06;;;;;;;5.30;3.83;;;;;;;;;;5003836;28;20282;-33
2023/08/19 18:11:35;;;;;;;8.57;4.20;;;;;;;;;;5005615;28;20221;-32
2023/08/19 18:14:02;;;;;;;4.80;3.58;;;;;;;;;;5010369;28;20229;-29
2023/08/19 18:16:30;;;;;;;3.85;3.55;;;;;;;;;;5012670;28;20203;-32
2023/08/19 18:18:57;;;;;;;4.38;3.80;;;;;;;;;;4998829;28;20214;-30
2023/08/19 18:21:24;;;;;;;5.47;4.03;;;;;;;;;;4993641;28;20230;-33
2023/08/19 18:23:51;;;;;;;5.45;3.88;;;;;;;;;;5012817;28;20218;-32
2023/08/19 18:26:18;;;;;;;5.07;3.85;;;;;;;;;;5004400;28;20208;-29
2023/08/19 18:28:46;;;;;;;5.65;3.88;;;;;;;;;;5008550;28;20219;-30
2023/08/19 18:31:13;;;;;;;5.75;4.05;;;;;;;;;;5010077;28;20223;-29
2023/08/19 18:33:41;;;;;;;4.60;4.20;;;;;;;;;;5000750;28;20208;-30
2023/08/19 18:36:08;;;;;;;4.70;4.30;;;;;;;;;;4993592;28;20266;-31